Time;durP1;ratioP1;P1;durP2;ratioP2;P2;SDS_P1;SDS_P2;PMS_P1;PMS_P2;Temp;Humidity;BMP_temperature;BMP_pressure;BME280_temperature;BME280_humidity;BME280_pressure;Samples;Min_cycle;Max_cycle;Signal;HPM_P1;HPM_P2
2023/10/03 00:02:57;;;;;;;34.30;15.55;;;20.50;85.10;;;;;;5054491;28;20044;-67
2023/10/03 00:06:00;;;;;;;28.50;14.40;;;20.50;84.60;;;;;;5054420;28;20044;-67
2023/10/03 00:09:08;;;;;;;29.73;15.48;;;20.50;85.20;;;;;;5054349;28;20040;-67
2023/10/03 00:12:12;;;;;;;32.25;18.60;;;20.40;85.60;;;;;;5053889;28;20059;-67
2023/10/03 00:15:17;;;;;;;38.50;20.27;;;20.40;86.00;;;;;;5054326;28;20035;-67
2023/10/03 00:18:21;;;;;;;35.17;20.33;;;20.40;85.80;;;;;;5054246;28;20051;-67
2023/10/03 00:21:25;;;;;;;37.42;18.15;;;20.10;86.20;;;;;;5054224;28;20048;-67
2023/10/03 00:24:29;;;;;;;32.42;17.48;;;20.10;87.10;;;;;;5054267;28;20048;-67
2023/10/03 00:27:35;;;;;;;34.65;18.48;;;20.10;87.40;;;;;;5054003;28;20048;-67
2023/10/03 00:30:39;;;;;;;30.42;17.63;;;20.00;87.20;;;;;;5053827;28;20408;-67
2023/10/03 00:33:43;;;;;;;30.25;15.23;;;19.90;87.80;;;;;;5053891;28;20055;-67
2023/10/03 00:36:49;;;;;;;36.83;15.80;;;18.70;86.20;;;;;;5053577;28;20064;-67
2023/10/03 00:39:53;;;;;;;40.03;17.17;;;19.90;87.40;;;;;;5053726;28;20428;-68
2023/10/03 00:42:59;;;;;;;38.33;16.60;;;19.90;87.70;;;;;;5053703;28;20052;-67
2023/10/03 00:46:03;;;;;;;31.10;16.13;;;19.90;87.00;;;;;;5054516;28;20044;-67
2023/10/03 00:49:14;;;;;;;32.67;16.63;;;20.10;87.60;;;;;;5053412;28;20492;-67
2023/10/03 00:52:20;;;;;;;33.92;16.58;;;19.70;87.20;;;;;;5053203;28;20063;-67
2023/10/03 00:55:28;;;;;;;31.27;15.48;;;19.10;87.20;;;;;;5053498;28;20048;-67
2023/10/03 00:58:32;;;;;;;32.72;17.10;;;19.80;87.40;;;;;;5053638;28;20052;-67
2023/10/03 01:01:37;;;;;;;31.65;15.98;;;19.60;87.90;;;;;;5053435;28;20687;-67
2023/10/03 01:04:41;;;;;;;26.50;15.70;;;21.20;88.30;;;;;;5053341;28;20396;-67
2023/10/03 01:07:49;;;;;;;36.20;16.45;;;19.50;87.40;;;;;;5053152;28;20499;-67
2023/10/03 01:10:54;;;;;;;53.38;16.70;;;20.80;88.70;;;;;;5051782;28;20068;-67
2023/10/03 01:14:00;;;;;;;33.28;15.88;;;19.50;88.50;;;;;;5053091;28;20048;-65
2023/10/03 01:17:06;;;;;;;32.75;16.15;;;20.30;89.40;;;;;;5052811;28;20503;-66
2023/10/03 01:20:23;;;;;;;29.50;15.68;;;;;;;;;;5052941;28;20507;-67
2023/10/03 01:23:35;;;;;;;29.63;15.13;;;19.30;88.80;;;;;;5052768;28;20036;-67
2023/10/03 01:26:39;;;;;;;26.77;15.13;;;18.40;88.80;;;;;;5052974;28;20052;-67
2023/10/03 01:29:45;;;;;;;28.15;14.25;;;19.20;89.60;;;;;;5051905;28;20040;-67
2023/10/03 01:32:56;;;;;;;29.20;15.40;;;18.90;90.00;;;;;;5052744;28;20048;-67
2023/10/03 01:36:03;;;;;;;31.10;15.23;;;;;;;;;;5051616;28;20052;-67
2023/10/03 01:39:07;;;;;;;31.80;15.02;;;19.10;90.30;;;;;;5052428;28;20066;-67
2023/10/03 01:42:11;;;;;;;31.27;15.20;;;18.70;90.10;;;;;;5051398;28;20044;-67
2023/10/03 01:45:23;;;;;;;28.55;14.48;;;18.90;90.10;;;;;;5051741;28;20044;-67
2023/10/03 01:48:27;;;;;;;;;;;19.00;90.40;;;;;;5052872;28;20048;-67
2023/10/03 01:51:30;;;;;;;30.33;15.30;;;20.40;90.60;;;;;;5052287;28;19924;-68
2023/10/03 01:54:34;;;;;;;36.17;15.40;;;;;;;;;;5051133;28;20044;-67
2023/10/03 01:57:42;;;;;;;34.13;15.68;;;19.00;90.20;;;;;;5051570;28;20040;-67
2023/10/03 02:00:48;;;;;;;28.45;14.75;;;;;;;;;;5051174;28;20055;-67
2023/10/03 02:03:52;;;;;;;27.50;14.60;;;;;;;;;;5052075;28;20044;-67
2023/10/03 02:06:57;;;;;;;30.73;14.90;;;;;;;;;;5052089;28;20044;-67
2023/10/03 02:10:01;;;;;;;29.80;15.20;;;;;;;;;;5051770;28;20048;-67
2023/10/03 02:13:09;;;;;;;30.45;14.85;;;18.40;90.50;;;;;;5051186;28;20108;-67
2023/10/03 02:16:15;;;;;;;30.40;14.10;;;;;;;;;;5051640;28;20036;-67
2023/10/03 02:19:20;;;;;;;31.58;15.32;;;;;;;;;;5051124;28;20508;-67
2023/10/03 02:22:24;;;;;;;32.47;14.38;;;;;;;;;;5051508;28;20040;-67
2023/10/03 02:25:29;;;;;;;27.35;14.85;;;18.60;90.10;;;;;;5051933;28;20040;-67
2023/10/03 02:28:34;;;;;;;22.60;13.65;;;;;;;;;;5050910;28;20052;-67
2023/10/03 02:31:38;;;;;;;27.10;14.98;;;;;;;;;;5051481;28;20064;-67
2023/10/03 02:34:42;;;;;;;25.42;14.05;;;;;;;;;;5051368;28;20059;-67
2023/10/03 02:37:47;;;;;;;26.52;15.02;;;;;;;;;;5050543;28;20056;-67
2023/10/03 02:40:57;;;;;;;27.58;14.60;;;18.60;90.20;;;;;;5051346;28;20051;-65
2023/10/03 02:44:05;;;;;;;;;;;18.60;90.40;;;;;;5051029;28;20060;-65
2023/10/03 02:47:10;;;;;;;26.40;14.07;;;;;;;;;;5051219;28;19920;-65
2023/10/03 02:50:15;;;;;;;26.83;13.70;;;;;;;;;;5050483;28;20047;-65
2023/10/03 02:53:20;;;;;;;24.27;12.65;;;;;;;;;;5050462;28;20535;-65
2023/10/03 02:56:25;;;;;;;26.70;13.38;;;;;;;;;;5050324;28;20052;-65
2023/10/03 02:59:29;;;;;;;26.75;13.27;;;;;;;;;;5050265;28;20044;-65
2023/10/03 03:02:33;;;;;;;25.17;13.38;;;;;;;;;;5051158;28;20056;-65
2023/10/03 03:05:38;;;;;;;23.58;12.30;;;;;;;;;;5050458;28;20044;-67
2023/10/03 03:08:46;;;;;;;21.67;12.63;;;;;;;;;;5050302;28;20421;-66
2023/10/03 03:11:53;;;;;;;25.02;13.15;;;;;;;;;;5050141;28;20064;-66
2023/10/03 03:14:58;;;;;;;26.02;13.45;;;18.50;90.20;;;;;;5049976;28;20040;-66
2023/10/03 03:18:03;;;;;;;26.88;13.55;;;18.40;90.30;;;;;;5050963;28;20063;-65
2023/10/03 03:21:09;;;;;;;27.98;13.48;;;19.60;90.70;;;;;;5050714;28;20040;-65
2023/10/03 03:24:18;;;;;;;24.92;13.02;;;16.50;89.70;;;;;;5051045;28;20071;-65
2023/10/03 03:27:26;;;;;;;27.23;13.60;;;18.60;90.40;;;;;;5050696;28;20052;-65
2023/10/03 03:33:36;;;;;;;26.95;13.45;;;;;;;;;;5052336;28;20404;-65
2023/10/03 03:36:41;;;;;;;28.77;13.40;;;;;;;;;;5055023;28;20040;-66
2023/10/03 03:39:54;;;;;;;32.10;14.20;;;;;;;;;;5054751;28;20535;-65
2023/10/03 03:43:06;;;;;;;28.80;14.65;;;18.90;89.60;;;;;;5054630;28;20060;-69
2023/10/03 03:46:12;;;;;;;26.38;14.55;;;;;;;;;;5054912;28;20056;-66
2023/10/03 03:49:20;;;;;;;28.02;14.13;;;;;;;;;;5054526;28;20515;-66
2023/10/03 03:52:25;;;;;;;29.95;14.23;;;;;;;;;;5054232;28;20056;-67
2023/10/03 03:55:33;;;;;;;27.10;13.90;;;18.20;89.10;;;;;;5054749;28;20499;-65
2023/10/03 03:58:40;;;;;;;27.58;14.13;;;;;;;;;;5054592;28;20044;-67
2023/10/03 04:01:45;;;;;;;26.50;14.25;;;;;;;;;;5054462;28;20040;-65
2023/10/03 04:04:49;;;;;;;32.95;19.25;;;;;;;;;;5054518;28;20043;-66
2023/10/03 04:07:54;;;;;;;28.60;14.90;;;;;;;;;;5054313;28;20048;-67
2023/10/03 04:10:58;;;;;;;26.80;14.63;;;;;;;;;;5053965;28;20055;-67
2023/10/03 04:14:05;;;;;;;27.98;15.27;;;;;;;;;;5054381;28;20052;-66
2023/10/03 04:17:11;;;;;;;31.20;14.48;;;;;;;;;;5053974;28;20048;-65
2023/10/03 04:20:30;;;;;;;29.90;14.95;;;;;;;;;;5053961;28;20040;-65
2023/10/03 04:23:33;;;;;;;33.35;14.13;;;;;;;;;;5053886;28;20073;-65
2023/10/03 04:26:41;;;;;;;28.45;14.07;;;;;;;;;;5054117;28;20047;-65
2023/10/03 04:29:47;;;;;;;37.03;15.23;;;;;;;;;;5053889;28;20043;-65
2023/10/03 04:32:53;;;;;;;36.63;15.40;;;17.90;90.60;;;;;;5053600;28;20044;-67
2023/10/03 04:36:03;;;;;;;32.83;15.43;;;;;;;;;;5053790;28;20052;-67
2023/10/03 04:39:08;;;;;;;37.45;16.23;;;;;;;;;;5053717;28;20044;-66
2023/10/03 04:42:14;;;;;;;38.13;16.42;;;;;;;;;;5052811;28;20044;-66
2023/10/03 04:45:19;;;;;;;41.03;16.63;;;;;;;;;;5053534;28;20051;-67
2023/10/03 04:48:24;;;;;;;30.90;15.90;;;17.90;91.10;;;;;;5053543;28;20040;-67
2023/10/03 04:51:28;;;;;;;38.40;16.77;;;;;;;;;;5053273;28;20072;-67
2023/10/03 04:54:32;;;;;;;36.30;15.95;;;;;;;;;;5053474;28;20043;-67
2023/10/03 04:57:41;;;;;;;37.42;15.95;;;;;;;;;;5053193;28;20044;-67
2023/10/03 05:00:45;;;;;;;37.13;15.40;;;;;;;;;;5053199;28;20040;-66
2023/10/03 05:03:50;;;;;;;32.25;13.48;;;;;;;;;;5053173;28;20044;-66
2023/10/03 05:06:54;;;;;;;31.70;14.25;;;;;;;;;;5053433;28;20052;-66
2023/10/03 05:09:58;;;;;;;31.55;15.50;;;;;;;;;;5052723;28;20044;-66
2023/10/03 05:13:05;;;;;;;40.50;13.60;;;;;;;;;;5052961;28;20056;-66
2023/10/03 05:16:09;;;;;;;34.95;13.93;;;;;;;;;;5052994;28;20044;-66
2023/10/03 05:19:15;;;;;;;36.70;13.63;;;;;;;;;;5053050;28;20062;-66
2023/10/03 05:22:20;;;;;;;37.08;13.90;;;;;;;;;;5052792;28;20044;-66
2023/10/03 05:25:24;;;;;;;31.92;14.18;;;;;;;;;;5052734;28;20040;-66
2023/10/03 05:28:28;;;;;;;46.50;14.73;;;;;;;;;;5052917;28;20047;-66
2023/10/03 05:31:34;;;;;;;39.10;14.80;;;;;;;;;;5052401;28;20052;-66
2023/10/03 05:34:39;;;;;;;29.52;13.00;;;;;;;;;;5051984;28;20048;-64
2023/10/03 05:37:43;;;;;;;42.92;13.60;;;18.90;87.20;;;;;;5052131;28;20052;-64
2023/10/03 05:40:47;;;;;;;41.28;14.35;;;21.00;83.00;;;;;;5052154;28;20049;-63
2023/10/03 05:43:52;;;;;;;38.45;13.32;;;;;;;;;;5052185;28;20385;-64
2023/10/03 05:46:56;;;;;;;44.15;13.15;;;;;;;;;;5052358;28;20040;-64
2023/10/03 05:50:00;;;;;;;60.80;14.35;;;25.50;74.70;;;;;;5052145;28;20040;-65
2023/10/03 05:53:07;;;;;;;52.65;14.93;;;24.30;74.30;;;;;;5051798;28;20055;-65
2023/10/03 05:56:11;;;;;;;55.20;14.13;;;24.90;72.60;;;;;;5051170;28;20420;-64
2023/10/03 05:59:15;;;;;;;45.38;14.75;;;25.20;71.80;;;;;;5051945;28;20044;-64
2023/10/03 06:02:19;;;;;;;57.35;14.52;;;25.00;71.90;;;;;;5052092;28;20048;-64
2023/10/03 06:05:23;;;;;;;48.03;14.57;;;25.30;72.60;;;;;;5051811;28;20043;-64
2023/10/03 06:08:27;;;;;;;59.38;14.73;;;25.90;71.50;;;;;;5052059;28;20044;-63
2023/10/03 06:11:31;;;;;;;44.40;13.82;;;26.20;70.20;;;;;;5051850;28;20056;-63
2023/10/03 06:14:38;;;;;;;53.75;13.82;;;26.20;70.20;;;;;;5051631;28;20048;-64
2023/10/03 06:17:42;;;;;;;47.75;14.05;;;26.20;70.30;;;;;;5051303;28;20063;-62
2023/10/03 06:20:49;;;;;;;34.28;12.35;;;26.10;70.00;;;;;;5051441;28;20052;-63
2023/10/03 06:23:53;;;;;;;36.35;12.30;;;26.00;69.30;;;;;;5051474;28;20516;-63
2023/10/03 06:26:57;;;;;;;32.58;13.50;;;25.70;71.40;;;;;;5051391;28;20044;-64
2023/10/03 06:30:02;;;;;;;40.42;12.13;;;25.60;71.90;;;;;;5051482;28;20036;-64
2023/10/03 06:33:07;;;;;;;43.08;14.02;;;25.70;70.40;;;;;;5051591;28;20056;-61
2023/10/03 06:36:12;;;;;;;42.83;15.07;;;25.50;70.60;;;;;;5052588;28;20048;-62
2023/10/03 06:39:16;;;;;;;52.55;20.48;;;25.20;71.80;;;;;;5053745;28;20048;-62
2023/10/03 06:42:20;;;;;;;55.88;21.23;;;25.00;71.60;;;;;;5053227;28;20048;-62
2023/10/03 06:45:24;;;;;;;41.78;19.20;;;24.90;72.30;;;;;;5051847;28;20203;-62
2023/10/03 06:48:28;;;;;;;36.85;17.77;;;25.50;72.10;;;;;;5051303;28;20044;-63
2023/10/03 06:51:32;;;;;;;37.17;17.65;;;24.90;72.20;;;;;;5051321;28;20477;-64
2023/10/03 06:54:36;;;;;;;42.47;18.25;;;25.00;72.60;;;;;;5051322;28;20392;-64
2023/10/03 06:57:40;;;;;;;53.63;17.45;;;25.10;72.70;;;;;;5051011;28;20067;-64
2023/10/03 07:00:45;;;;;;;45.30;18.83;;;25.30;72.40;;;;;;5051285;28;20048;-64
2023/10/03 07:03:48;;;;;;;35.25;16.52;;;25.40;71.30;;;;;;5051121;28;20043;-64
2023/10/03 07:06:52;;;;;;;32.10;15.05;;;25.30;72.80;;;;;;5050952;28;20044;-64
2023/10/03 07:09:56;;;;;;;33.03;15.32;;;25.30;73.30;;;;;;5050843;28;20050;-63
2023/10/03 07:13:01;;;;;;;36.10;15.68;;;25.40;72.60;;;;;;5050799;28;20056;-63
2023/10/03 07:16:05;;;;;;;44.03;14.85;;;25.50;73.20;;;;;;5050618;28;20044;-64
2023/10/03 07:19:10;;;;;;;32.60;13.27;;;25.30;72.60;;;;;;5050871;28;20047;-63
2023/10/03 07:22:20;;;;;;;28.27;12.38;;;25.10;72.80;;;;;;5050984;28;20155;-62
2023/10/03 07:25:24;;;;;;;33.05;14.15;;;25.30;73.50;;;;;;5050816;28;20056;-63
2023/10/03 07:28:27;;;;;;;31.30;12.95;;;24.40;72.40;;;;;;5050099;28;20044;-63
2023/10/03 07:31:32;;;;;;;27.33;11.60;;;26.20;71.80;;;;;;5050085;28;20052;-64
2023/10/03 07:34:42;;;;;;;36.95;11.48;;;26.30;72.00;;;;;;5049012;28;20064;-63
2023/10/03 07:37:46;;;;;;;44.97;12.65;;;26.70;70.40;;;;;;5050431;28;20491;-63
2023/10/03 07:40:50;;;;;;;34.53;10.93;;;26.60;71.30;;;;;;5050392;28;20052;-64
2023/10/03 07:43:54;;;;;;;31.98;11.98;;;26.90;71.00;;;;;;5050589;28;20063;-64
2023/10/03 07:46:58;;;;;;;28.75;10.60;;;26.90;71.20;;;;;;5050480;28;20040;-64
2023/10/03 07:50:02;;;;;;;36.13;12.02;;;27.00;71.10;;;;;;5050021;28;20064;-64
2023/10/03 07:53:13;;;;;;;24.73;9.60;;;27.10;70.00;;;;;;5050265;28;20060;-64
2023/10/03 07:56:25;;;;;;;24.75;10.25;;;27.30;69.90;;;;;;5049569;28;20044;-64
2023/10/03 07:59:30;;;;;;;20.95;9.30;;;27.70;69.30;;;;;;5050096;28;20052;-64
2023/10/03 08:02:34;;;;;;;17.33;8.80;;;27.80;68.70;;;;;;5050130;28;20072;-64
2023/10/03 08:05:39;;;;;;;15.27;8.65;;;28.00;69.30;;;;;;5050230;28;20056;-65
2023/10/03 08:08:43;;;;;;;23.52;8.98;;;28.20;68.70;;;;;;5050285;28;20091;-63
2023/10/03 08:11:47;;;;;;;15.57;8.38;;;28.30;67.80;;;;;;5050006;28;20055;-64
2023/10/03 08:14:52;;;;;;;21.98;12.00;;;28.20;67.50;;;;;;5050314;28;20044;-64
2023/10/03 08:17:57;;;;;;;23.75;11.95;;;27.90;66.30;;;;;;5050413;28;20055;-64
2023/10/03 08:21:05;;;;;;;24.48;11.98;;;28.50;66.80;;;;;;5053827;28;20048;-64
2023/10/03 08:24:14;;;;;;;23.70;11.18;;;28.40;66.30;;;;;;5054024;28;20059;-64
2023/10/03 08:27:18;;;;;;;18.23;9.65;;;28.30;64.70;;;;;;5053812;28;20055;-63
2023/10/03 08:30:28;;;;;;;18.05;9.50;;;28.50;63.20;;;;;;5053487;28;20449;-63
2023/10/03 08:33:36;;;;;;;16.10;9.07;;;28.50;63.90;;;;;;5053059;28;20052;-63
2023/10/03 08:36:40;;;;;;;18.58;8.68;;;28.60;63.40;;;;;;5053282;28;20032;-64
2023/10/03 08:39:45;;;;;;;15.18;8.60;;;28.60;62.90;;;;;;5053431;28;20055;-64
2023/10/03 08:42:52;;;;;;;16.83;8.18;;;28.60;63.50;;;;;;5053644;28;20393;-64
2023/10/03 08:45:57;;;;;;;13.48;7.22;;;28.70;62.90;;;;;;5053538;28;20064;-64
2023/10/03 08:49:08;;;;;;;16.92;8.80;;;28.80;61.50;;;;;;5053243;28;20043;-64
2023/10/03 08:52:12;;;;;;;20.05;8.68;;;28.70;61.20;;;;;;5052129;28;20056;-64
2023/10/03 08:55:20;;;;;;;19.67;9.02;;;28.70;61.70;;;;;;5053111;28;20048;-64
2023/10/03 08:58:26;;;;;;;23.05;8.73;;;28.80;62.20;;;;;;5052939;28;20048;-64
2023/10/03 09:01:33;;;;;;;14.98;7.95;;;28.80;62.00;;;;;;5053235;28;20047;-64
2023/10/03 09:04:40;;;;;;;14.70;8.75;;;28.80;62.60;;;;;;5053304;28;20484;-64
2023/10/03 09:07:44;;;;;;;23.15;10.00;;;28.90;63.10;;;;;;5052898;28;20063;-64
2023/10/03 09:10:55;;;;;;;18.75;9.30;;;29.00;62.90;;;;;;5052922;28;20051;-63
2023/10/03 09:13:59;;;;;;;19.80;9.50;;;29.00;63.00;;;;;;5052754;28;20048;-64
2023/10/03 09:17:04;;;;;;;15.57;8.82;;;29.10;62.40;;;;;;5053019;28;20044;-64
2023/10/03 09:20:08;;;;;;;19.48;9.48;;;29.20;61.80;;;;;;5052809;28;20044;-64
2023/10/03 09:23:17;;;;;;;33.42;10.38;;;29.30;61.50;;;;;;5052977;28;20060;-63
2023/10/03 09:26:21;;;;;;;17.15;8.70;;;29.40;61.40;;;;;;5052558;28;20048;-63
2023/10/03 09:29:31;;;;;;;18.75;9.63;;;29.50;60.90;;;;;;5052413;28;20043;-64
2023/10/03 09:32:39;;;;;;;18.58;9.45;;;29.60;60.90;;;;;;5051835;28;20056;-64
2023/10/03 09:35:57;;;;;;;16.52;9.52;;;29.70;60.80;;;;;;5052087;28;20052;-64
2023/10/03 09:39:02;;;;;;;20.25;11.80;;;29.90;60.60;;;;;;5052281;28;20108;-64
2023/10/03 09:42:16;;;;;;;17.88;9.90;;;29.90;60.20;;;;;;5052253;28;20052;-64
2023/10/03 09:45:26;;;;;;;16.25;8.95;;;30.00;59.40;;;;;;5052402;28;20523;-64
2023/10/03 09:48:31;;;;;;;17.45;8.65;;;30.10;60.00;;;;;;5052385;28;20067;-64
2023/10/03 09:51:36;;;;;;;12.23;6.60;;;30.20;59.10;;;;;;5051775;28;20047;-64
2023/10/03 09:54:41;;;;;;;15.88;7.85;;;30.20;57.50;;;;;;5052449;28;20059;-64
2023/10/03 09:57:52;;;;;;;16.35;7.88;;;30.30;58.30;;;;;;5052256;28;20044;-65
2023/10/03 10:00:57;;;;;;;12.43;7.25;;;30.40;58.30;;;;;;5051009;28;20040;-64
2023/10/03 10:04:03;;;;;;;17.65;7.75;;;30.50;57.40;;;;;;5051927;28;20040;-64
2023/10/03 10:07:33;;;;;;;17.05;8.00;;;30.50;57.50;;;;;;5052045;28;20392;-64
2023/10/03 10:10:37;;;;;;;;;;;30.50;57.60;;;;;;5051863;28;20044;-64
2023/10/03 10:14:09;;;;;;;15.82;8.20;;;30.60;57.50;;;;;;5051499;28;19931;-64
2023/10/03 10:17:16;;;;;;;;;;;30.60;57.30;;;;;;5052154;28;20044;-64
2023/10/03 10:20:38;;;;;;;15.73;7.22;;;30.70;57.50;;;;;;5051715;28;19916;-64
2023/10/03 10:24:20;;;;;;;17.20;7.50;;;30.70;57.30;;;;;;5051764;28;20052;-65
2023/10/03 10:27:29;;;;;;;20.58;8.63;;;30.80;57.70;;;;;;5051232;28;20060;-64
2023/10/03 10:30:34;;;;;;;16.20;8.70;;;30.70;58.30;;;;;;5051514;28;20503;-64
2023/10/03 10:33:38;;;;;;;16.85;8.32;;;30.70;59.10;;;;;;5050774;28;20059;-64
2023/10/03 10:37:03;;;;;;;16.65;8.43;;;30.70;58.90;;;;;;5051766;28;20184;-64
2023/10/03 10:40:10;;;;;;;13.93;7.57;;;30.70;58.80;;;;;;5051123;28;20060;-64
2023/10/03 10:43:16;;;;;;;16.77;8.55;;;30.70;59.10;;;;;;5050810;28;20099;-63
2023/10/03 10:46:35;;;;;;;14.63;8.10;;;30.70;59.20;;;;;;5051116;28;20048;-64
2023/10/03 10:49:40;;;;;;;15.98;7.40;;;30.60;59.30;;;;;;5051069;28;20504;-66
2023/10/03 10:53:02;;;;;;;15.60;7.80;;;30.60;59.70;;;;;;5050941;28;20511;-66
2023/10/03 10:56:08;;;;;;;19.25;7.97;;;30.50;59.80;;;;;;5050993;28;20067;-65
2023/10/03 10:59:12;;;;;;;18.33;8.68;;;30.50;60.40;;;;;;5050892;28;20499;-65
2023/10/03 11:02:22;;;;;;;22.80;9.23;;;30.40;60.60;;;;;;5050899;28;20044;-65
2023/10/03 11:05:39;;;;;;;19.13;9.43;;;30.40;60.60;;;;;;5050573;28;20047;-65
2023/10/03 11:08:50;;;;;;;14.68;7.57;;;30.30;60.60;;;;;;5050228;28;20044;-65
2023/10/03 11:11:55;;;;;;;14.13;7.47;;;30.30;61.20;;;;;;5050908;28;20060;-66
2023/10/03 11:14:58;;;;;;;20.30;8.40;;;30.20;61.60;;;;;;5050901;28;20040;-65
2023/10/03 11:18:04;;;;;;;14.73;7.97;;;30.10;62.30;;;;;;5050690;28;20032;-66
2023/10/03 11:21:10;;;;;;;19.02;7.60;;;30.10;62.90;;;;;;5050371;28;20048;-66
2023/10/03 11:24:22;;;;;;;21.00;8.95;;;30.00;63.50;;;;;;5051012;28;20052;-68
2023/10/03 11:27:28;;;;;;;20.58;7.90;;;29.90;64.20;;;;;;5050652;28;20036;-65
2023/10/03 11:30:33;;;;;;;14.88;7.88;;;29.90;64.80;;;;;;5050385;28;20056;-64
2023/10/03 11:33:47;;;;;;;15.38;7.50;;;29.90;64.80;;;;;;5050228;28;20052;-65
2023/10/03 11:36:51;;;;;;;13.93;7.68;;;29.80;64.80;;;;;;5050733;28;20586;-65
2023/10/03 11:40:20;;;;;;;12.52;7.25;;;29.80;65.10;;;;;;5050626;28;20048;-65
2023/10/03 11:43:24;;;;;;;14.05;7.75;;;29.80;65.10;;;;;;5050477;28;20052;-64
2023/10/03 11:46:36;;;;;;;12.65;7.38;;;29.70;65.10;;;;;;5050637;28;20503;-64
2023/10/03 11:49:40;;;;;;;20.85;8.23;;;29.70;65.10;;;;;;5050447;28;20048;-66
2023/10/03 11:52:44;;;;;;;14.50;7.30;;;29.70;65.10;;;;;;5050228;28;20052;-65
2023/10/03 11:55:52;;;;;;;17.83;8.65;;;29.70;65.20;;;;;;5053954;28;20056;-66
2023/10/03 11:58:56;;;;;;;13.95;7.82;;;29.70;65.90;;;;;;5054298;28;20044;-64
2023/10/03 12:02:00;;;;;;;19.63;8.18;;;29.70;65.30;;;;;;5054431;28;20135;-64
2023/10/03 12:05:05;;;;;;;16.13;8.25;;;29.60;65.50;;;;;;5054289;28;20036;-66
2023/10/03 12:08:10;;;;;;;14.52;8.30;;;29.60;66.10;;;;;;5054312;28;20048;-65
2023/10/03 12:11:14;;;;;;;10.85;7.00;;;29.60;65.50;;;;;;5053774;28;20048;-65
2023/10/03 12:14:18;;;;;;;17.50;7.78;;;29.60;65.70;;;;;;5054165;28;20369;-65
2023/10/03 12:17:22;;;;;;;15.60;7.57;;;29.60;66.10;;;;;;5053531;28;20048;-65
2023/10/03 12:20:26;;;;;;;14.55;7.18;;;29.60;66.90;;;;;;5053760;28;20064;-65
2023/10/03 12:23:30;;;;;;;13.88;7.82;;;29.50;67.50;;;;;;5053630;28;20047;-65
2023/10/03 12:26:34;;;;;;;17.60;7.57;;;29.50;67.90;;;;;;5053613;28;20049;-65
2023/10/03 12:29:38;;;;;;;16.17;7.03;;;29.50;67.80;;;;;;5052837;28;20051;-65
2023/10/03 12:32:44;;;;;;;20.38;7.07;;;29.50;68.30;;;;;;5053705;28;20115;-65
2023/10/03 12:35:49;;;;;;;16.08;7.38;;;29.50;68.60;;;;;;5052484;28;20536;-65
2023/10/03 12:38:53;;;;;;;14.82;6.90;;;29.40;68.60;;;;;;5053565;28;20047;-65
2023/10/03 12:41:58;;;;;;;16.17;8.07;;;29.30;68.90;;;;;;5053555;28;20706;-64
2023/10/03 12:45:03;;;;;;;14.60;7.80;;;29.30;69.10;;;;;;5053815;28;20051;-65
2023/10/03 12:48:09;;;;;;;16.25;8.02;;;29.30;68.90;;;;;;5052593;28;20111;-64
2023/10/03 12:51:14;;;;;;;16.52;7.45;;;29.20;68.70;;;;;;5052617;28;20056;-65
2023/10/03 12:54:18;;;;;;;16.85;8.20;;;29.20;69.50;;;;;;5053170;28;20516;-65
2023/10/03 12:57:22;;;;;;;17.23;8.30;;;29.20;69.00;;;;;;5053267;28;20040;-64
2023/10/03 13:00:26;;;;;;;16.17;8.05;;;29.20;69.10;;;;;;5052116;28;20044;-64
2023/10/03 13:03:32;;;;;;;12.75;6.85;;;29.10;69.20;;;;;;5052206;28;20056;-63
2023/10/03 13:06:37;;;;;;;15.65;6.95;;;29.10;69.20;;;;;;5052257;28;20052;-65
2023/10/03 13:09:41;;;;;;;14.80;6.80;;;29.10;69.60;;;;;;5052141;28;20044;-64
2023/10/03 13:12:46;;;;;;;14.75;7.13;;;29.10;69.60;;;;;;5052042;28;20408;-64
2023/10/03 13:15:51;;;;;;;10.43;6.70;;;29.00;69.60;;;;;;5052686;28;20091;-64
2023/10/03 13:18:55;;;;;;;12.02;6.82;;;29.00;69.60;;;;;;5053152;28;20040;-66
2023/10/03 13:22:00;;;;;;;10.35;6.28;;;29.00;69.40;;;;;;5052867;28;20044;-64
2023/10/03 13:25:04;;;;;;;14.07;7.53;;;29.00;69.50;;;;;;5052904;28;20044;-64
2023/10/03 13:28:10;;;;;;;17.85;7.47;;;29.00;69.70;;;;;;5053024;28;20040;-64
2023/10/03 13:31:14;;;;;;;16.83;7.53;;;29.00;70.10;;;;;;5052940;28;20044;-65
2023/10/03 13:34:20;;;;;;;19.05;6.90;;;29.00;69.50;;;;;;5052217;28;20436;-65
2023/10/03 13:37:26;;;;;;;13.77;6.43;;;28.90;69.10;;;;;;5052631;28;20139;-63
2023/10/03 13:40:30;;;;;;;24.80;7.82;;;28.90;69.60;;;;;;5052702;28;20052;-64
2023/10/03 13:43:34;;;;;;;14.10;7.55;;;28.80;70.00;;;;;;5052462;28;20048;-64
2023/10/03 13:46:39;;;;;;;13.93;7.13;;;28.80;70.20;;;;;;5052350;28;20047;-64
2023/10/03 13:49:43;;;;;;;14.25;6.80;;;28.80;70.50;;;;;;5052120;28;20495;-64
2023/10/03 13:52:47;;;;;;;11.82;6.68;;;28.70;70.60;;;;;;5052319;28;20063;-63
2023/10/03 13:55:52;;;;;;;16.02;6.50;;;28.70;70.90;;;;;;5052356;28;20048;-63
2023/10/03 13:58:56;;;;;;;19.35;8.50;;;29.70;71.90;;;;;;5051968;28;20052;-64
2023/10/03 14:02:00;;;;;;;13.30;6.63;;;28.50;71.60;;;;;;5052019;28;20040;-65
2023/10/03 14:05:05;;;;;;;18.52;7.80;;;28.50;71.80;;;;;;5051699;28;20073;-65
2023/10/03 14:08:08;;;;;;;16.58;7.03;;;28.40;72.50;;;;;;5051825;28;20044;-65
2023/10/03 14:11:20;;;;;;;17.30;6.65;;;28.40;72.30;;;;;;5051679;28;20048;-64
2023/10/03 14:14:25;;;;;;;16.25;7.25;;;28.40;72.50;;;;;;5051559;28;20072;-64
2023/10/03 14:17:29;;;;;;;11.38;6.85;;;29.20;73.30;;;;;;5051152;28;20048;-64
2023/10/03 14:20:33;;;;;;;13.93;6.50;;;28.30;73.10;;;;;;5050942;28;20048;-64
2023/10/03 14:23:37;;;;;;;13.95;6.63;;;28.20;73.50;;;;;;5051519;28;20048;-64
2023/10/03 14:26:41;;;;;;;10.45;6.40;;;28.30;73.80;;;;;;5051380;28;20047;-65
2023/10/03 14:29:46;;;;;;;16.23;6.63;;;28.20;73.90;;;;;;5051329;28;20044;-64
2023/10/03 14:32:50;;;;;;;12.57;6.32;;;28.20;74.60;;;;;;5051336;28;20511;-65
2023/10/03 14:35:54;;;;;;;15.90;6.97;;;28.20;74.80;;;;;;5051382;28;20093;-64
2023/10/03 14:38:58;;;;;;;13.23;6.65;;;28.10;74.60;;;;;;5051426;28;20044;-63
2023/10/03 14:42:02;;;;;;;14.07;6.78;;;28.10;73.30;;;;;;5051405;28;20048;-64
2023/10/03 14:45:08;;;;;;;11.90;6.60;;;28.00;73.80;;;;;;5051281;28;20484;-64
2023/10/03 14:48:12;;;;;;;12.73;6.60;;;27.90;73.00;;;;;;5050427;28;20048;-65
2023/10/03 14:51:16;;;;;;;12.73;6.53;;;28.00;73.60;;;;;;5050986;28;20056;-65
2023/10/03 14:54:20;;;;;;;16.38;6.63;;;28.00;73.70;;;;;;5050662;28;20064;-64
2023/10/03 14:57:24;;;;;;;15.90;7.05;;;27.90;73.80;;;;;;5050104;28;20047;-65
2023/10/03 15:00:28;;;;;;;16.77;6.70;;;27.90;73.80;;;;;;5051011;28;20048;-64
2023/10/03 15:03:32;;;;;;;14.57;6.85;;;27.80;74.00;;;;;;5050914;28;20040;-64
2023/10/03 15:06:40;;;;;;;18.00;6.85;;;27.80;73.10;;;;;;5050926;28;20044;-64
2023/10/03 15:09:44;;;;;;;10.73;6.25;;;27.80;73.60;;;;;;5050680;28;20052;-63
2023/10/03 15:12:48;;;;;;;12.52;6.68;;;28.60;74.20;;;;;;5050603;28;20404;-64
2023/10/03 15:15:53;;;;;;;11.40;6.18;;;27.80;73.50;;;;;;5050810;28;20393;-64
2023/10/03 15:18:57;;;;;;;13.77;7.13;;;27.70;73.30;;;;;;5049822;28;20578;-63
2023/10/03 15:22:02;;;;;;;14.05;6.57;;;27.70;73.40;;;;;;5050684;28;20060;-64
2023/10/03 15:25:07;;;;;;;17.85;7.30;;;27.70;73.70;;;;;;5050405;28;20048;-64
2023/10/03 15:28:13;;;;;;;13.50;6.28;;;27.70;74.40;;;;;;5050338;28;20048;-64
2023/10/03 15:31:22;;;;;;;14.10;6.82;;;27.60;74.30;;;;;;5054472;28;20086;-64
2023/10/03 15:34:29;;;;;;;13.60;6.28;;;27.60;73.70;;;;;;5054362;28;20514;-63
2023/10/03 15:37:33;;;;;;;14.30;7.38;;;27.50;73.60;;;;;;5054644;28;20056;-63
2023/10/03 15:40:38;;;;;;;17.90;7.05;;;27.50;73.50;;;;;;5054590;28;20056;-64
2023/10/03 15:43:45;;;;;;;12.57;6.55;;;27.50;73.90;;;;;;5054755;28;20047;-64
2023/10/03 15:46:49;;;;;;;11.80;6.40;;;27.40;74.40;;;;;;5054404;28;20400;-63
2023/10/03 15:49:54;;;;;;;12.20;6.55;;;26.70;74.10;;;;;;5054193;28;20503;-63
2023/10/03 15:52:57;;;;;;;22.75;6.60;;;27.40;75.40;;;;;;5054373;28;20062;-63
2023/10/03 15:56:04;;;;;;;14.95;7.10;;;27.40;75.90;;;;;;5054460;28;20052;-64
2023/10/03 15:59:10;;;;;;;21.05;7.25;;;28.60;77.30;;;;;;5054222;28;20048;-64
2023/10/03 16:02:13;;;;;;;19.23;7.15;;;27.30;76.90;;;;;;5054190;28;20067;-64
2023/10/03 16:05:18;;;;;;;15.98;7.53;;;27.20;76.80;;;;;;5054167;28;20043;-63
2023/10/03 16:08:22;;;;;;;20.35;8.18;;;27.20;77.10;;;;;;5054045;28;20052;-64
2023/10/03 16:11:26;;;;;;;20.67;7.68;;;27.20;77.60;;;;;;5053926;28;20066;-64
2023/10/03 16:14:30;;;;;;;22.40;7.40;;;27.00;77.70;;;;;;5053765;28;20056;-63
2023/10/03 16:17:34;;;;;;;20.08;7.50;;;27.00;78.30;;;;;;5053768;28;20523;-63
2023/10/03 16:20:38;;;;;;;22.95;7.50;;;27.30;78.50;;;;;;5052884;28;20496;-63